Flight Track Log - Related Links

Times and Time Zones

All times are in EST time to prevent confusion due to time zone crossing. See the N314K flight status page for this flight to view local times or setup timezone preferences in your user account.

Time Position Orientation Groundspeed Altitude Reporting Facility
EST Latitude Longitude Course Direction KTS MPH feet Rate Location/Type
Fri 03:46:08 PM 41.1728 -72.8100 81° East 198 228 5,500  Level Boston Center
Fri 03:47:09 PM 41.1825 -72.7314 81° East 212 244 5,500  Level Boston Center
Fri 03:48:09 PM 41.1872 -72.6533 85° East 212 244 5,500 -48 Level Boston Center
Fri 03:49:13 PM 41.1922 -72.5753 85° East 212 244 5,400 -48 Descending Boston Center
Fri 03:50:13 PM 41.1964 -72.4972 86° East 212 244 5,400 -50 Level Boston Center
Fri 03:51:14 PM 41.2142 -72.4053 76° East 214 246 5,300 49 Descending Boston Center
Fri 03:52:15 PM 41.2244 -72.3297 80° East 209 241 5,500 99 Climbing Boston Center
Fri 03:53:15 PM 41.2331 -72.2528 82° East 213 245 5,500  Level Boston Center
Fri 03:53:18 PM 41.2328 -72.2517 108° East 213 245 5,500 94 Level Boston Center
Fri 03:54:19 PM 41.2408 -72.1742 82° East 207 238 5,600 49 Climbing Boston Center
Fri 03:55:20 PM 41.2467 -72.0961 84° East 210 242 5,600  Level Boston Center
Fri 03:56:15 PM 41.2533 -72.0239 83° East 214 246 5,600 -98 Level Boston Center
Fri 03:56:21 PM 41.2542 -72.0208 70° East 214 246 5,500 -182 Descending Boston Center
Fri 03:57:21 PM 41.2633 -71.9358 82° East 215 247 5,400  Descending Boston Center
Fri 03:58:22 PM 41.2714 -71.8556 82° East 213 245 5,500 50 Climbing Boston Center
Fri 03:59:22 PM 41.2806 -71.7817 81° East 209 241 5,500  Level Boston Center
Fri 03:59:25 PM 41.2808 -71.7800 77° East 209 241 5,500  Level Boston Center
Fri 04:00:23 PM 41.2867 -71.7006 84° East 211 243 5,500  Level Boston Center
Fri 04:00:26 PM 41.2881 -71.6986 46° Northeast 210 242 5,500  Level Boston Center
Fri 04:01:24 PM 41.2942 -71.6231 84° East 211 243 5,500 98 Level Boston Center
Fri 04:01:27 PM 41.2964 -71.6217 25° Northeast 210 242 5,600  Climbing Boston Center
Fri 04:02:27 PM 41.3067 -71.5442 80° East 214 246 5,500 -48 Descending Boston Center
Fri 04:03:31 PM 41.3172 -71.4600 80° East 215 247 5,500  Level Boston Center
Fri 04:04:31 PM 41.3244 -71.3822 83° East 214 246 5,500 -149 Level Boston Center
Fri 04:05:32 PM 41.3306 -71.3036 84° East 215 247 5,200 -435 Descending Boston Center
Fri 04:06:35 PM 41.3386 -71.2144 83° East 225 259 4,600 -488 Descending Boston Center
Fri 04:07:35 PM 41.3458 -71.1325 83° East 224 258 4,200 -397 Descending Boston Center
Fri 04:08:36 PM 41.3508 -71.0539 85° East 214 246 3,800 -496 Descending Boston Center
Fri 04:09:36 PM 41.3628 -70.9739 79° East 205 236 3,200 -484 Descending Boston Center
Fri 04:10:40 PM 41.3747 -70.8992 78° East 205 236 2,800 -387 Descending Boston Center
Fri 04:11:40 PM 41.3872 -70.8275 77° East 200 230 2,400 -397 Descending Boston Center
Fri 04:12:41 PM 41.3978 -70.7550 79° East 201 231 2,000 -492 Descending Boston Center
Fri 04:13:42 PM 41.4147 -70.6822 73° East 193 222 1,400 -387 Descending Boston Center
Fri 04:14:45 PM 41.4289 -70.6208 73° East 176 203 1,200 -435 Descending Boston Center
Fri 04:15:46 PM 41.4128 -70.5939 129° Southeast 130 150 500 -545 Descending Boston Center
Fri 04:16:46 PM 41.3922 -70.6156 218° Southwest 111 128 100 -400 Descending Boston Center

Login

Don't have an account? Register now (free) for customized features, flight alerts, and more!